North Ottawa, Illinois
Current Conditions -  °F | °C
As of 8:35 PM on Friday 24 Oct 2014 (Local Time) from KVYS Reporting Station
Overcast Overcast  
Wind Chill: 60°   Ceiling: 4400
Heat Index: 60°   Visibility: 10mi
Dew Point: 49°   Wind: 12mph
Humidity: 67%   Direction: 190°S
Pressure: 29.95"   Gusts: NA
Location:  41.4349°N, 88.8687°W
Report Text: KVYS 250135Z AUTO 19010KT 10SM SCT039 BKN044 OVC070 16/10 A2995 RMK AO2 T01580097
Loading
Personal Weather Stations






























Interactive Weather Map
Tropical Storm Tracking
New forecast layout! Learn more

10-Day Weather Forecast

Advertisements
Track Severe Weather on mobile